createdAt,value
2023-05-27T00:00:31.547Z,35.68
2023-05-27T00:01:31.610Z,35.62
2023-05-27T00:02:31.734Z,35.64
2023-05-27T00:03:31.838Z,35.67
2023-05-27T00:04:31.826Z,35.67
2023-05-27T00:05:31.846Z,35.70
2023-05-27T00:06:31.931Z,35.68
2023-05-27T00:07:31.960Z,35.68
2023-05-27T00:08:32.049Z,35.68
2023-05-27T00:09:32.106Z,35.68
2023-05-27T00:10:32.148Z,35.71
2023-05-27T00:11:32.216Z,35.61
2023-05-27T00:12:32.286Z,35.64
2023-05-27T00:13:32.347Z,35.62
2023-05-27T00:14:32.395Z,35.63
2023-05-27T00:15:32.453Z,35.62
2023-05-27T00:16:32.651Z,35.66
2023-05-27T00:17:32.619Z,35.64
2023-05-27T00:18:32.656Z,35.65
2023-05-27T00:19:32.702Z,35.65
2023-05-27T00:20:32.809Z,35.66
2023-05-27T00:21:32.842Z,35.61
2023-05-27T00:22:32.916Z,35.62
2023-05-27T00:23:32.954Z,35.65
2023-05-27T00:24:33.020Z,35.67
2023-05-27T00:25:33.081Z,35.65
2023-05-27T00:26:33.188Z,35.66
2023-05-27T00:27:33.228Z,35.65
2023-05-27T00:28:33.261Z,35.65
2023-05-27T00:29:33.328Z,35.66
2023-05-27T00:30:33.383Z,35.65
2023-05-27T00:31:33.450Z,35.59
2023-05-27T00:32:33.450Z,35.62
2023-05-27T00:33:33.436Z,35.61
2023-05-27T00:34:33.443Z,35.58
2023-05-27T00:35:33.442Z,35.61
2023-05-27T00:36:33.438Z,35.59
2023-05-27T00:37:33.454Z,35.59
2023-05-27T00:38:33.430Z,35.61
2023-05-27T00:39:33.451Z,35.61
2023-05-27T00:40:33.452Z,35.62
2023-05-27T00:41:33.454Z,35.56
2023-05-27T00:42:33.518Z,35.58
2023-05-27T00:43:33.573Z,35.58
2023-05-27T00:44:33.647Z,35.52
2023-05-27T00:45:33.836Z,35.58
2023-05-27T00:46:33.941Z,35.57
2023-05-27T00:47:33.947Z,35.58
2023-05-27T00:48:33.907Z,35.56
2023-05-27T00:49:33.977Z,35.56
2023-05-27T00:50:34.044Z,35.58
2023-05-27T00:51:34.101Z,35.57
2023-05-27T00:52:34.173Z,35.57
2023-05-27T00:53:34.254Z,35.56
2023-05-27T00:54:34.330Z,35.57
2023-05-27T00:55:34.396Z,35.54
2023-05-27T00:56:34.437Z,35.54
2023-05-27T00:57:34.509Z,35.59
2023-05-27T00:58:34.568Z,35.58
2023-05-27T00:59:34.638Z,35.57
2023-05-27T01:00:34.718Z,35.57
2023-05-27T01:01:34.822Z,35.58
2023-05-27T01:02:34.891Z,35.55
2023-05-27T01:03:35.109Z,35.65
2023-05-27T01:04:34.977Z,35.55
2023-05-27T01:05:35.043Z,35.59
2023-05-27T01:06:35.111Z,35.60
2023-05-27T01:07:35.184Z,35.67
2023-05-27T01:08:35.255Z,35.58
2023-05-27T01:09:35.322Z,35.59
2023-05-27T01:10:35.395Z,35.57
2023-05-27T01:11:35.474Z,35.57
2023-05-27T01:12:35.536Z,35.57
2023-05-27T01:13:35.603Z,35.60
2023-05-27T01:14:35.687Z,35.63
2023-05-27T01:15:35.738Z,35.55
2023-05-27T01:16:35.865Z,35.59
2023-05-27T01:17:35.906Z,35.55
2023-05-27T01:18:35.963Z,35.56
2023-05-27T01:19:36.027Z,35.57
2023-05-27T01:20:36.110Z,35.55
2023-05-27T01:21:36.156Z,35.59
2023-05-27T01:22:36.249Z,35.54
2023-05-27T01:23:36.299Z,35.56
2023-05-27T01:24:36.373Z,35.59
2023-05-27T01:25:36.442Z,35.61
2023-05-27T01:26:36.512Z,35.56
2023-05-27T01:27:36.578Z,35.55
2023-05-27T01:28:36.656Z,35.60
2023-05-27T01:29:36.742Z,35.56
2023-05-27T01:30:36.800Z,35.60
2023-05-27T01:31:36.884Z,35.55
2023-05-27T01:32:37.003Z,35.61
2023-05-27T01:33:37.014Z,35.55
2023-05-27T01:34:37.111Z,35.60
2023-05-27T01:35:37.153Z,35.61
2023-05-27T01:36:37.263Z,35.61
2023-05-27T01:37:37.316Z,35.55
2023-05-27T01:38:37.364Z,35.56
2023-05-27T01:39:37.441Z,35.63
2023-05-27T01:40:37.503Z,35.56
2023-05-27T01:41:37.561Z,35.57
2023-05-27T01:42:37.629Z,35.58
2023-05-27T01:43:37.720Z,35.60
2023-05-27T01:44:37.772Z,35.63
2023-05-27T01:45:37.834Z,35.62
2023-05-27T01:46:37.946Z,35.66
2023-05-27T01:47:38.015Z,35.63
2023-05-27T01:48:38.055Z,35.64
2023-05-27T01:49:38.124Z,35.63
2023-05-27T01:50:38.196Z,35.61
2023-05-27T01:51:38.254Z,35.63
2023-05-27T01:52:38.322Z,35.60
2023-05-27T01:53:38.342Z,35.53
2023-05-27T01:54:38.450Z,35.49
2023-05-27T01:55:38.492Z,35.56
2023-05-27T01:56:38.579Z,35.54
2023-05-27T01:57:38.682Z,35.63
2023-05-27T01:58:38.810Z,35.60
2023-05-27T01:59:38.815Z,35.63
2023-05-27T02:00:38.932Z,35.57
2023-05-27T02:01:38.949Z,35.57
2023-05-27T02:02:39.107Z,35.58
2023-05-27T02:03:39.190Z,35.59
2023-05-27T02:04:39.175Z,35.59
2023-05-27T02:05:39.136Z,35.57
2023-05-27T02:06:39.168Z,35.57
2023-05-27T02:07:39.149Z,35.57
2023-05-27T02:08:39.155Z,35.59
2023-05-27T02:09:39.163Z,35.59
2023-05-27T02:10:39.169Z,35.58
2023-05-27T02:11:39.191Z,35.58
2023-05-27T02:12:39.179Z,35.54
2023-05-27T02:13:39.182Z,35.54
2023-05-27T02:14:39.266Z,35.57
2023-05-27T02:15:39.305Z,35.62
2023-05-27T02:16:39.416Z,35.62
2023-05-27T02:17:39.488Z,35.59
2023-05-27T02:18:39.525Z,35.59
2023-05-27T02:19:39.572Z,35.59
2023-05-27T02:20:39.742Z,35.62
2023-05-27T02:21:39.695Z,35.55
2023-05-27T02:22:39.753Z,35.54
2023-05-27T02:23:39.803Z,35.64
2023-05-27T02:24:39.885Z,35.69
2023-05-27T02:25:39.957Z,35.60
2023-05-27T02:26:40.025Z,35.64
2023-05-27T02:27:40.076Z,35.60
2023-05-27T02:28:40.120Z,35.58
2023-05-27T02:29:40.387Z,35.56
2023-05-27T02:30:40.289Z,35.65
2023-05-27T02:31:40.315Z,35.57
2023-05-27T02:32:40.331Z,35.56
2023-05-27T02:33:40.366Z,35.64
2023-05-27T02:34:40.445Z,35.55
2023-05-27T02:35:40.507Z,35.53
2023-05-27T02:36:40.595Z,35.55
2023-05-27T02:37:40.639Z,35.66
2023-05-27T02:38:40.697Z,35.64
2023-05-27T02:39:40.768Z,35.62
2023-05-27T02:40:40.852Z,35.65
2023-05-27T02:41:40.902Z,35.59
2023-05-27T02:42:40.981Z,35.56
2023-05-27T02:43:41.031Z,35.54
2023-05-27T02:44:41.085Z,35.59
2023-05-27T02:45:41.139Z,35.57
2023-05-27T02:46:41.208Z,35.57
2023-05-27T02:47:41.197Z,35.62
2023-05-27T02:48:41.151Z,35.62
2023-05-27T02:49:41.149Z,35.62
2023-05-27T02:50:41.174Z,35.55
2023-05-27T02:51:41.190Z,35.47
2023-05-27T02:52:41.171Z,35.54
2023-05-27T02:53:41.193Z,35.61
2023-05-27T02:54:41.193Z,35.61
2023-05-27T02:55:41.251Z,35.58
2023-05-27T02:56:41.297Z,35.63
2023-05-27T02:57:41.371Z,35.63
2023-05-27T02:58:41.438Z,35.62
2023-05-27T02:59:41.512Z,35.52
2023-05-27T03:00:41.557Z,35.57
2023-05-27T03:01:41.697Z,35.57
2023-05-27T03:02:41.776Z,35.57
2023-05-27T03:03:41.766Z,35.58
2023-05-27T03:04:41.807Z,35.55
2023-05-27T03:05:41.856Z,35.53
2023-05-27T03:06:41.929Z,35.53
2023-05-27T03:07:41.998Z,35.66
2023-05-27T03:08:42.059Z,35.54
2023-05-27T03:09:42.087Z,35.59
2023-05-27T03:10:42.159Z,35.61
2023-05-27T03:11:42.232Z,35.55
2023-05-27T03:12:42.286Z,35.57
2023-05-27T03:13:42.378Z,35.53
2023-05-27T03:14:42.441Z,35.58
2023-05-27T03:15:42.507Z,35.57
2023-05-27T03:16:42.623Z,35.58
2023-05-27T03:17:42.719Z,35.55
2023-05-27T03:18:42.733Z,35.57
2023-05-27T03:19:42.763Z,35.59
2023-05-27T03:20:42.948Z,35.55
2023-05-27T03:21:42.882Z,35.58
2023-05-27T03:22:42.940Z,35.58
2023-05-27T03:23:42.999Z,35.56
2023-05-27T03:24:43.055Z,35.58
2023-05-27T03:25:43.148Z,35.53
2023-05-27T03:26:43.155Z,35.54
2023-05-27T03:27:43.238Z,35.55
2023-05-27T03:28:43.278Z,35.60
2023-05-27T03:29:43.357Z,35.48
2023-05-27T03:30:43.426Z,35.57
2023-05-27T03:31:43.555Z,35.58
2023-05-27T03:32:43.597Z,35.64
2023-05-27T03:33:43.638Z,35.57
2023-05-27T03:34:43.699Z,35.58
2023-05-27T03:35:43.737Z,35.62
2023-05-27T03:36:43.791Z,35.60
2023-05-27T03:37:43.825Z,35.60
2023-05-27T03:38:43.890Z,35.59
2023-05-27T03:39:43.967Z,35.58
2023-05-27T03:40:44.011Z,35.51
2023-05-27T03:41:44.051Z,35.54
2023-05-27T03:42:44.126Z,35.58
2023-05-27T03:43:44.138Z,35.55
2023-05-27T03:44:44.181Z,35.60
2023-05-27T03:45:44.281Z,35.60
2023-05-27T03:46:44.285Z,35.55
2023-05-27T03:47:44.392Z,35.49
2023-05-27T03:48:44.410Z,35.55
2023-05-27T03:49:44.461Z,35.57
2023-05-27T03:50:44.514Z,35.49
2023-05-27T03:51:44.536Z,35.52
2023-05-27T03:52:44.582Z,35.61
2023-05-27T03:53:44.673Z,35.57
2023-05-27T03:54:44.700Z,35.57
2023-05-27T03:55:44.773Z,35.54
2023-05-27T03:56:44.793Z,35.55
2023-05-27T03:57:44.887Z,35.60
2023-05-27T03:58:46.483Z,35.54
2023-05-27T03:59:44.994Z,35.52
2023-05-27T04:00:44.977Z,35.55
2023-05-27T04:01:44.981Z,35.57
2023-05-27T04:02:45.088Z,35.60
2023-05-27T04:03:45.132Z,35.60
2023-05-27T04:04:45.033Z,35.54
2023-05-27T04:05:45.013Z,35.50
2023-05-27T04:06:45.016Z,35.55
2023-05-27T04:07:45.039Z,35.54
2023-05-27T04:08:45.037Z,35.56
2023-05-27T04:09:45.052Z,35.50
2023-05-27T04:10:45.051Z,35.49
2023-05-27T04:11:45.085Z,35.50
2023-05-27T04:12:45.120Z,35.52
2023-05-27T04:13:45.091Z,35.62
2023-05-27T04:14:45.100Z,35.55
2023-05-27T04:15:45.117Z,35.50
2023-05-27T04:16:45.179Z,35.58
2023-05-27T04:17:45.160Z,35.56
2023-05-27T04:18:45.173Z,35.56
2023-05-27T04:19:45.168Z,35.54
2023-05-27T04:20:45.389Z,35.57
2023-05-27T04:21:45.227Z,35.47
2023-05-27T04:22:45.259Z,35.52
2023-05-27T04:23:45.319Z,35.56
2023-05-27T04:24:45.382Z,35.56
2023-05-27T04:25:45.441Z,35.49
2023-05-27T04:26:45.461Z,35.61
2023-05-27T04:27:45.484Z,35.56
2023-05-27T04:28:45.500Z,35.49
2023-05-27T04:29:45.543Z,35.57
2023-05-27T04:30:45.580Z,35.50
2023-05-27T04:31:45.671Z,35.56
2023-05-27T04:32:45.692Z,35.57
2023-05-27T04:33:45.703Z,35.55
2023-05-27T04:34:45.753Z,35.49
2023-05-27T04:35:45.800Z,35.56
2023-05-27T04:36:45.842Z,35.62
2023-05-27T04:37:45.940Z,35.55
2023-05-27T04:38:45.980Z,35.53
2023-05-27T04:39:46.050Z,35.60
2023-05-27T04:40:46.061Z,35.51
2023-05-27T04:41:46.085Z,35.50
2023-05-27T04:42:46.091Z,35.55
2023-05-27T04:43:46.110Z,35.55
2023-05-27T04:44:46.168Z,35.54
2023-05-27T04:45:46.206Z,35.46
2023-05-27T04:46:46.346Z,35.54
2023-05-27T04:47:46.315Z,35.56
2023-05-27T04:48:46.341Z,35.52
2023-05-27T04:49:46.391Z,35.57
2023-05-27T04:50:46.429Z,35.56
2023-05-27T04:51:46.490Z,35.50
2023-05-27T04:52:46.570Z,35.52
2023-05-27T04:53:46.628Z,35.48
2023-05-27T04:54:46.686Z,35.46
2023-05-27T04:55:46.742Z,35.49
2023-05-27T04:56:46.805Z,35.52
2023-05-27T04:57:46.830Z,35.50
2023-05-27T04:58:46.889Z,35.54
2023-05-27T04:59:46.929Z,35.45
2023-05-27T05:00:46.949Z,35.51
2023-05-27T05:01:47.058Z,35.49
2023-05-27T05:02:47.058Z,35.48
2023-05-27T05:03:47.067Z,35.48
2023-05-27T05:04:47.152Z,35.48
2023-05-27T05:05:47.173Z,35.49
2023-05-27T05:06:47.202Z,35.45
2023-05-27T05:07:47.265Z,35.51
2023-05-27T05:08:47.312Z,35.51
2023-05-27T05:09:47.373Z,35.46
2023-05-27T05:10:47.483Z,35.49
2023-05-27T05:11:47.423Z,35.41
2023-05-27T05:12:47.479Z,35.45
2023-05-27T05:13:47.543Z,35.41
2023-05-27T05:14:47.539Z,35.47
2023-05-27T05:15:47.576Z,35.46
2023-05-27T05:16:47.667Z,35.47
2023-05-27T05:17:47.766Z,35.47
2023-05-27T05:18:47.720Z,35.45
2023-05-27T05:19:47.720Z,35.48
2023-05-27T05:20:47.763Z,35.49
2023-05-27T05:21:47.745Z,35.44
2023-05-27T05:22:47.754Z,35.45
2023-05-27T05:23:47.765Z,35.50
2023-05-27T05:24:47.766Z,35.44
2023-05-27T05:25:47.765Z,35.44
2023-05-27T05:26:47.764Z,35.45
2023-05-27T05:27:47.818Z,35.45
2023-05-27T05:28:47.822Z,35.45
2023-05-27T05:29:47.884Z,35.44
2023-05-27T05:30:47.979Z,35.44
2023-05-27T05:31:48.027Z,35.43
2023-05-27T05:32:48.116Z,35.43
2023-05-27T05:33:48.137Z,35.37
2023-05-27T05:34:48.104Z,35.46
2023-05-27T05:35:48.125Z,35.44
2023-05-27T05:36:48.120Z,35.40
2023-05-27T05:37:48.130Z,35.43
2023-05-27T05:38:48.141Z,35.44
2023-05-27T05:39:48.155Z,35.44
2023-05-27T05:40:48.257Z,35.39
2023-05-27T05:41:48.871Z,35.43
2023-05-27T05:42:48.236Z,35.43
2023-05-27T05:43:48.291Z,35.45
2023-05-27T05:44:48.380Z,35.45
2023-05-27T05:45:48.490Z,35.38
2023-05-27T05:46:48.448Z,35.38
2023-05-27T05:47:48.516Z,35.43
2023-05-27T05:48:49.230Z,35.40
2023-05-27T05:49:48.465Z,35.37
2023-05-27T05:50:48.614Z,35.43
2023-05-27T05:51:48.490Z,35.44
2023-05-27T05:52:48.471Z,35.40
2023-05-27T05:53:48.494Z,35.40
2023-05-27T05:54:48.499Z,35.37
2023-05-27T05:55:48.508Z,35.44
2023-05-27T05:56:48.506Z,35.43
2023-05-27T05:57:48.530Z,35.38
2023-05-27T05:58:48.539Z,35.40
2023-05-27T05:59:48.540Z,35.39
2023-05-27T06:00:48.604Z,35.36
2023-05-27T06:01:48.544Z,35.36
2023-05-27T06:02:48.678Z,35.37
2023-05-27T06:03:48.748Z,35.44
2023-05-27T06:04:48.716Z,35.40
2023-05-27T06:05:48.558Z,35.41
2023-05-27T06:06:48.573Z,35.41
2023-05-27T06:07:48.584Z,35.39
2023-05-27T06:08:48.590Z,35.37
2023-05-27T06:09:48.593Z,35.37
2023-05-27T06:10:48.623Z,35.41
2023-05-27T06:11:48.621Z,35.36
2023-05-27T06:12:48.649Z,35.40
2023-05-27T06:13:48.628Z,35.37
2023-05-27T06:14:48.661Z,35.37
2023-05-27T06:15:48.703Z,35.38
2023-05-27T06:16:48.669Z,35.39
2023-05-27T06:17:48.866Z,35.37
2023-05-27T06:18:48.759Z,35.33
2023-05-27T06:19:48.853Z,35.37
2023-05-27T06:20:49.266Z,35.41
2023-05-27T06:21:49.013Z,35.37
2023-05-27T06:22:49.070Z,35.37
2023-05-27T06:23:49.158Z,35.39
2023-05-27T06:24:49.229Z,35.42
2023-05-27T06:25:49.306Z,35.40
2023-05-27T06:26:49.321Z,35.40
2023-05-27T06:27:49.330Z,35.37
2023-05-27T06:28:49.328Z,35.39
2023-05-27T06:29:49.344Z,35.42
2023-05-27T06:30:49.583Z,35.40
2023-05-27T06:31:49.492Z,35.37
2023-05-27T06:32:49.406Z,35.39
2023-05-27T06:33:49.395Z,35.43
2023-05-27T06:34:49.391Z,35.41
2023-05-27T06:35:49.474Z,35.40
2023-05-27T06:36:49.558Z,35.39
2023-05-27T06:37:49.636Z,35.39
2023-05-27T06:38:49.703Z,35.41
2023-05-27T06:39:49.798Z,35.36
2023-05-27T06:40:50.038Z,35.44
2023-05-27T06:41:49.956Z,35.45
2023-05-27T06:42:50.031Z,35.39
2023-05-27T06:43:50.108Z,35.39
2023-05-27T06:44:50.186Z,35.40
2023-05-27T06:46:03.094Z,35.39
2023-05-27T06:46:53.633Z,35.40
2023-05-27T06:47:50.340Z,35.41
2023-05-27T06:48:50.298Z,35.41
2023-05-27T06:49:50.332Z,35.39
2023-05-27T06:50:50.736Z,35.41
2023-05-27T06:51:50.338Z,35.39
2023-05-27T06:52:50.343Z,35.34
2023-05-27T06:53:50.388Z,35.35
2023-05-27T06:54:50.420Z,35.33
2023-05-27T06:55:50.380Z,35.29
2023-05-27T06:56:50.388Z,35.27
2023-05-27T06:57:50.442Z,35.27
2023-05-27T06:58:50.411Z,35.28
2023-05-27T06:59:50.420Z,35.31
2023-05-27T07:00:50.652Z,35.34
2023-05-27T07:01:50.668Z,35.32
2023-05-27T07:02:50.470Z,35.28
2023-05-27T07:03:50.433Z,35.30
2023-05-27T07:04:50.446Z,35.32
2023-05-27T07:05:50.513Z,35.27
2023-05-27T07:06:50.453Z,35.31
2023-05-27T07:07:50.472Z,35.28
2023-05-27T07:08:50.476Z,35.31
2023-05-27T07:09:50.496Z,35.36
2023-05-27T07:10:50.742Z,35.32
2023-05-27T07:11:50.480Z,35.27
2023-05-27T07:12:50.490Z,35.29
2023-05-27T07:13:50.495Z,35.26
2023-05-27T07:14:50.521Z,35.23
2023-05-27T07:15:50.553Z,35.17
2023-05-27T07:16:50.508Z,35.23
2023-05-27T07:17:50.560Z,35.24
2023-05-27T07:18:50.591Z,35.23
2023-05-27T07:19:50.589Z,35.16
2023-05-27T07:20:50.816Z,35.16
2023-05-27T07:21:50.602Z,35.19
2023-05-27T07:22:50.612Z,35.06
2023-05-27T07:23:50.622Z,35.06
2023-05-27T07:24:50.644Z,35.00
2023-05-27T07:25:51.951Z,34.97
2023-05-27T07:26:50.660Z,34.92
2023-05-27T07:27:50.641Z,34.93
2023-05-27T07:28:50.646Z,34.86
2023-05-27T07:29:50.724Z,34.80
2023-05-27T07:30:50.978Z,34.80
2023-05-27T07:31:50.827Z,34.72
2023-05-27T07:32:50.845Z,34.71
2023-05-27T07:33:50.860Z,34.64
2023-05-27T07:34:50.902Z,34.62
2023-05-27T07:35:50.903Z,34.54
2023-05-27T07:36:50.899Z,34.57
2023-05-27T07:37:50.922Z,34.53
2023-05-27T07:38:50.910Z,34.50
2023-05-27T07:39:50.918Z,34.48
2023-05-27T07:40:51.176Z,34.45
2023-05-27T07:41:50.893Z,34.48
2023-05-27T07:42:50.905Z,34.44
2023-05-27T07:43:50.892Z,34.38
2023-05-27T07:44:50.918Z,34.36
2023-05-27T07:45:50.893Z,34.36
2023-05-27T07:46:50.920Z,34.44
2023-05-27T07:47:50.915Z,34.50
2023-05-27T07:48:50.896Z,34.56
2023-05-27T07:49:50.964Z,34.58
2023-05-27T07:50:51.061Z,34.64
2023-05-27T07:51:50.915Z,34.66
2023-05-27T07:52:50.986Z,34.69
2023-05-27T07:53:50.931Z,34.71
2023-05-27T07:54:55.067Z,34.64
2023-05-27T07:55:51.963Z,34.63
2023-05-27T07:56:50.976Z,34.64
2023-05-27T07:57:50.979Z,34.64
2023-05-27T07:58:50.987Z,34.68
2023-05-27T07:59:50.987Z,34.64
2023-05-27T08:00:51.396Z,34.64
2023-05-27T08:01:51.056Z,34.67
2023-05-27T08:02:51.039Z,34.71
2023-05-27T08:03:51.064Z,34.70
2023-05-27T08:04:51.102Z,34.75
2023-05-27T08:05:51.030Z,34.81
2023-05-27T08:06:51.033Z,34.73
2023-05-27T08:07:51.036Z,34.78
2023-05-27T08:08:51.035Z,34.79
2023-05-27T08:09:51.475Z,34.74
2023-05-27T08:10:51.132Z,34.83
2023-05-27T08:11:51.037Z,34.70
2023-05-27T08:12:51.042Z,34.63
2023-05-27T08:13:51.046Z,34.62
2023-05-27T08:14:51.069Z,34.57
2023-05-27T08:15:51.057Z,34.49
2023-05-27T08:16:51.100Z,34.52
2023-05-27T08:17:51.225Z,34.57
2023-05-27T08:18:51.157Z,34.57
2023-05-27T08:19:51.214Z,34.63
2023-05-27T08:20:51.578Z,34.63
2023-05-27T08:21:51.288Z,34.64
2023-05-27T08:22:51.312Z,34.53
2023-05-27T08:23:51.367Z,34.52
2023-05-27T08:24:51.396Z,34.59
2023-05-27T08:25:51.418Z,34.65
2023-05-27T08:26:51.470Z,34.59
2023-05-27T08:27:51.506Z,34.66
2023-05-27T08:28:51.440Z,34.65
2023-05-27T08:29:51.462Z,34.65
2023-05-27T08:30:51.471Z,34.66
2023-05-27T08:31:51.490Z,34.71
2023-05-27T08:32:52.783Z,34.74
2023-05-27T08:33:51.486Z,34.74
2023-05-27T08:34:51.490Z,34.61
2023-05-27T08:35:51.540Z,34.59
2023-05-27T08:36:51.512Z,34.52
2023-05-27T08:37:51.513Z,34.56
2023-05-27T08:38:51.527Z,34.52
2023-05-27T08:39:51.522Z,34.53
2023-05-27T08:40:51.724Z,34.58
2023-05-27T08:41:51.530Z,34.52
2023-05-27T08:42:51.534Z,34.55
2023-05-27T08:43:52.638Z,34.58
2023-05-27T08:44:51.560Z,34.63
2023-05-27T08:45:51.600Z,34.55
2023-05-27T08:46:51.693Z,34.54
2023-05-27T08:47:51.588Z,34.60
2023-05-27T08:48:51.561Z,34.60
2023-05-27T08:49:51.580Z,34.60
2023-05-27T08:50:51.577Z,34.61
2023-05-27T08:51:54.180Z,34.59
2023-05-27T08:52:51.574Z,34.65
2023-05-27T08:53:51.572Z,34.66
2023-05-27T08:54:51.590Z,34.65
2023-05-27T08:55:51.589Z,34.68
2023-05-27T08:56:51.616Z,34.67
2023-05-27T08:57:51.622Z,34.70
2023-05-27T08:58:51.612Z,34.63
2023-05-27T08:59:51.624Z,34.68
2023-05-27T09:00:51.845Z,34.70
2023-05-27T09:01:51.704Z,34.62
2023-05-27T09:02:51.664Z,34.67
2023-05-27T09:03:51.698Z,34.69
2023-05-27T09:06:10.605Z,34.71
2023-05-27T09:07:10.630Z,34.74
2023-05-27T09:08:10.609Z,34.70
2023-05-27T09:09:10.612Z,34.65
2023-05-27T09:10:10.576Z,34.60
2023-05-27T09:11:10.626Z,34.60
2023-05-27T09:12:10.568Z,34.58
2023-05-27T09:13:10.552Z,34.59
2023-05-27T09:14:10.575Z,34.52
2023-05-27T09:15:10.560Z,34.60
2023-05-27T09:16:10.549Z,34.50
2023-05-27T09:17:10.513Z,34.44
2023-05-27T09:18:11.151Z,34.40
2023-05-27T09:19:10.479Z,34.44
2023-05-27T09:20:10.539Z,34.44
2023-05-27T09:21:10.453Z,34.47
2023-05-27T09:22:10.430Z,34.45
2023-05-27T09:23:10.414Z,34.45
2023-05-27T09:24:10.436Z,34.37
2023-05-27T09:25:11.473Z,34.33
2023-05-27T09:26:10.464Z,34.31
2023-05-27T09:27:10.487Z,34.29
2023-05-27T09:28:10.516Z,34.25
2023-05-27T09:29:10.514Z,34.19
2023-05-27T09:30:10.569Z,34.24
2023-05-27T09:31:10.926Z,34.23
2023-05-27T09:32:10.574Z,34.12
2023-05-27T09:33:10.574Z,34.07
2023-05-27T09:34:10.616Z,34.13
2023-05-27T09:35:10.639Z,34.16
2023-05-27T09:36:10.719Z,34.21
2023-05-27T09:37:10.744Z,34.24
2023-05-27T09:38:10.756Z,34.18
2023-05-27T09:39:10.760Z,34.06
2023-05-27T09:40:10.803Z,33.97
2023-05-27T09:41:10.797Z,33.96
2023-05-27T09:42:10.824Z,33.89
2023-05-27T09:43:10.850Z,33.82
2023-05-27T09:44:10.891Z,33.78
2023-05-27T09:45:10.925Z,33.79
2023-05-27T09:46:10.997Z,33.80
2023-05-27T09:47:10.950Z,33.82
2023-05-27T09:48:10.980Z,33.80
2023-05-27T09:49:11.051Z,33.75
2023-05-27T09:50:11.295Z,33.65
2023-05-27T09:51:11.068Z,33.60
2023-05-27T09:52:11.076Z,33.54
2023-05-27T09:53:12.306Z,33.48
2023-05-27T09:54:11.126Z,33.38
2023-05-27T09:55:11.151Z,33.33
2023-05-27T09:56:11.164Z,33.29
2023-05-27T09:57:11.207Z,33.33
2023-05-27T09:58:11.272Z,33.29
2023-05-27T09:59:11.269Z,33.25
2023-05-27T10:00:11.267Z,33.22
2023-05-27T10:01:11.370Z,33.17
2023-05-27T10:02:11.289Z,33.10
2023-05-27T10:03:11.271Z,33.11
2023-05-27T10:04:11.248Z,33.01
2023-05-27T10:05:11.304Z,33.02
2023-05-27T10:06:11.228Z,33.01
2023-05-27T10:07:13.145Z,32.97
2023-05-27T10:09:12.190Z,32.84
2023-05-27T10:10:11.193Z,32.91
2023-05-27T10:11:11.161Z,32.81
2023-05-27T10:12:11.138Z,32.85
2023-05-27T10:13:11.151Z,32.78
2023-05-27T10:14:11.106Z,32.70
2023-05-27T10:15:11.110Z,32.68
2023-05-27T10:16:11.128Z,32.68
2023-05-27T10:17:11.092Z,32.64
2023-05-27T10:18:11.053Z,32.61
2023-05-27T10:19:11.039Z,32.53
2023-05-27T10:20:11.065Z,32.51
2023-05-27T10:21:11.017Z,32.43
2023-05-27T10:22:11.008Z,32.42
2023-05-27T10:23:10.989Z,32.44
2023-05-27T10:24:11.001Z,32.37
2023-05-27T10:25:10.968Z,32.29
2023-05-27T10:26:10.988Z,32.28
2023-05-27T10:27:10.943Z,32.29
2023-05-27T10:28:10.936Z,32.24
2023-05-27T10:29:10.943Z,32.20
2023-05-27T10:30:10.921Z,32.20
2023-05-27T10:31:10.945Z,32.20
2023-05-27T10:32:10.877Z,32.12
2023-05-27T10:33:10.891Z,32.09
2023-05-27T10:34:10.870Z,32.09
2023-05-27T10:35:10.912Z,32.03
2023-05-27T10:36:10.902Z,32.05
2023-05-27T10:37:10.919Z,31.99
2023-05-27T10:38:10.916Z,31.90
2023-05-27T10:39:10.941Z,31.88
2023-05-27T10:40:10.929Z,31.78
2023-05-27T10:41:10.954Z,31.80
2023-05-27T10:42:10.946Z,31.78
2023-05-27T10:43:10.960Z,31.72
2023-05-27T10:44:10.967Z,31.72
2023-05-27T10:45:10.979Z,31.72
2023-05-27T10:46:11.051Z,31.70
2023-05-27T10:47:11.020Z,31.65
2023-05-27T10:48:11.016Z,31.70
2023-05-27T10:49:11.023Z,31.65
2023-05-27T10:50:11.019Z,31.65
2023-05-27T10:51:11.019Z,31.64
2023-05-27T10:52:11.055Z,31.61
2023-05-27T10:53:11.034Z,31.54
2023-05-27T10:55:11.025Z,31.59
2023-05-27T10:56:11.016Z,31.53
2023-05-27T10:57:10.993Z,31.52
2023-05-27T10:58:10.984Z,31.50
2023-05-27T10:59:11.029Z,31.45
2023-05-27T11:00:10.962Z,31.46
2023-05-27T11:01:10.948Z,31.42
2023-05-27T11:02:11.082Z,31.43
2023-05-27T11:03:10.956Z,31.39
2023-05-27T11:04:10.970Z,31.34
2023-05-27T11:05:10.894Z,31.30
2023-05-27T11:06:10.876Z,31.32
2023-05-27T11:07:10.868Z,31.25
2023-05-27T11:08:10.845Z,31.23
2023-05-27T11:09:10.827Z,31.14
2023-05-27T11:10:10.816Z,31.18
2023-05-27T11:11:10.810Z,31.16
2023-05-27T11:12:10.783Z,31.13
2023-05-27T11:13:10.785Z,31.10
2023-05-27T11:14:10.776Z,31.05
2023-05-27T11:15:10.787Z,30.97
2023-05-27T11:16:10.771Z,30.96
2023-05-27T11:17:10.725Z,30.91
2023-05-27T11:18:10.787Z,30.93
2023-05-27T11:19:10.702Z,30.91
2023-05-27T11:20:10.754Z,30.93
2023-05-27T11:21:10.695Z,30.98
2023-05-27T11:22:10.666Z,30.91
2023-05-27T11:23:10.672Z,30.87
2023-05-27T11:24:10.614Z,30.78
2023-05-27T11:25:10.641Z,30.80
2023-05-27T11:26:10.581Z,30.71
2023-05-27T11:27:11.582Z,30.80
2023-05-27T11:28:10.570Z,30.81
2023-05-27T11:29:10.536Z,30.70
2023-05-27T11:30:10.524Z,30.77
2023-05-27T11:31:10.517Z,30.70
2023-05-27T11:32:10.503Z,30.73
2023-05-27T11:33:20.027Z,30.67
2023-05-27T11:34:11.502Z,30.70
2023-05-27T11:35:10.481Z,30.66
2023-05-27T11:36:10.448Z,30.68
2023-05-27T11:37:10.430Z,30.65
2023-05-27T11:38:10.414Z,30.56
2023-05-27T11:39:10.400Z,30.59
2023-05-27T11:40:10.408Z,30.53
2023-05-27T11:41:10.375Z,30.54
2023-05-27T11:42:10.363Z,30.46
2023-05-27T11:43:10.346Z,30.45
2023-05-27T11:44:10.318Z,30.40
2023-05-27T11:45:10.310Z,30.42
2023-05-27T11:46:10.318Z,30.44
2023-05-27T11:47:10.272Z,30.45
2023-05-27T11:48:10.329Z,30.43
2023-05-27T11:49:10.250Z,30.34
2023-05-27T11:50:10.241Z,30.34
2023-05-27T11:51:10.210Z,30.34
2023-05-27T11:52:10.177Z,30.29
2023-05-27T11:53:10.180Z,30.23
2023-05-27T11:54:10.148Z,30.24
2023-05-27T11:55:10.149Z,30.19
2023-05-27T11:56:10.132Z,30.20
2023-05-27T11:57:10.106Z,30.17
2023-05-27T11:58:10.083Z,30.20
2023-05-27T11:59:10.058Z,30.10
2023-05-27T12:00:10.050Z,30.12
2023-05-27T12:01:10.027Z,30.17
2023-05-27T12:02:10.087Z,30.20
2023-05-27T12:03:10.170Z,30.14
2023-05-27T12:04:09.989Z,30.15
2023-05-27T12:05:15.149Z,30.08
2023-05-27T12:06:10.977Z,30.03
2023-05-27T12:07:19.457Z,29.97
2023-05-27T12:08:10.932Z,29.96
2023-05-27T12:09:09.898Z,29.96
2023-05-27T12:10:09.871Z,29.92
2023-05-27T12:11:09.880Z,29.96
2023-05-27T12:12:09.870Z,29.91
2023-05-27T12:13:09.839Z,29.82
2023-05-27T12:14:09.883Z,29.77
2023-05-27T12:15:09.853Z,29.70
2023-05-27T12:16:09.854Z,29.73
2023-05-27T12:17:09.781Z,29.77
2023-05-27T12:18:09.825Z,29.66
2023-05-27T12:19:09.775Z,29.62
2023-05-27T12:20:09.785Z,29.58
2023-05-27T12:21:09.751Z,29.60
2023-05-27T12:22:09.722Z,29.56
2023-05-27T12:23:09.714Z,29.56
2023-05-27T12:24:09.683Z,29.59
2023-05-27T12:25:09.708Z,29.60
2023-05-27T12:26:09.657Z,29.56
2023-05-27T12:27:09.652Z,29.58
2023-05-27T12:28:09.620Z,29.56
2023-05-27T12:29:09.594Z,29.54
2023-05-27T12:30:09.657Z,29.52
2023-05-27T12:31:09.593Z,29.49
2023-05-27T12:32:09.554Z,29.50
2023-05-27T12:33:09.561Z,29.49
2023-05-27T12:34:09.521Z,29.44
2023-05-27T12:35:09.502Z,29.45
2023-05-27T12:36:09.499Z,29.37
2023-05-27T12:37:11.496Z,29.45
2023-05-27T12:38:09.441Z,29.34
2023-05-27T12:39:09.431Z,29.32
2023-05-27T12:40:09.457Z,29.34
2023-05-27T12:41:09.403Z,29.33
2023-05-27T12:42:09.359Z,29.32
2023-05-27T12:43:09.343Z,29.31
2023-05-27T12:44:09.329Z,29.25
2023-05-27T12:45:09.301Z,29.25
2023-05-27T12:46:09.277Z,29.18
2023-05-27T12:47:09.354Z,29.21
2023-05-27T12:48:09.263Z,29.20
2023-05-27T12:49:09.211Z,29.21
2023-05-27T12:50:09.429Z,29.14
2023-05-27T12:51:09.198Z,29.24
2023-05-27T12:52:09.148Z,29.21
2023-05-27T12:53:09.151Z,29.17
2023-05-27T12:54:09.159Z,29.12
2023-05-27T12:55:09.374Z,29.13
2023-05-27T12:56:09.101Z,29.13